sensor_id;sensor_type;location;lat;lon;timestamp;temperature;humidity
33414;DHT22;60055;41.884;12.534;2022-10-31T00:00:50;17.10;99.90
33414;DHT22;60055;41.884;12.534;2022-10-31T00:03:16;17.00;99.90
33414;DHT22;60055;41.884;12.534;2022-10-31T00:05:44;17.10;99.90
33414;DHT22;60055;41.884;12.534;2022-10-31T00:08:10;17.00;99.90
33414;DHT22;60055;41.884;12.534;2022-10-31T00:10:39;16.90;99.90
33414;DHT22;60055;41.884;12.534;2022-10-31T00:13:06;16.90;99.90
33414;DHT22;60055;41.884;12.534;2022-10-31T00:15:33;16.90;99.90
33414;DHT22;60055;41.884;12.534;2022-10-31T00:17:59;16.90;99.90
33414;DHT22;60055;41.884;12.534;2022-10-31T00:20:25;16.90;99.90
33414;DHT22;60055;41.884;12.534;2022-10-31T00:22:50;16.80;99.90
33414;DHT22;60055;41.884;12.534;2022-10-31T00:25:16;16.80;99.90
33414;DHT22;60055;41.884;12.534;2022-10-31T00:27:41;16.80;99.90
33414;DHT22;60055;41.884;12.534;2022-10-31T00:30:07;16.80;99.90
33414;DHT22;60055;41.884;12.534;2022-10-31T00:32:33;16.80;99.90
33414;DHT22;60055;41.884;12.534;2022-10-31T00:34:58;16.80;99.90
33414;DHT22;60055;41.884;12.534;2022-10-31T00:37:24;16.80;99.90
33414;DHT22;60055;41.884;12.534;2022-10-31T00:39:50;16.70;99.90
33414;DHT22;60055;41.884;12.534;2022-10-31T00:42:15;16.60;99.90
33414;DHT22;60055;41.884;12.534;2022-10-31T00:44:41;16.60;99.90
33414;DHT22;60055;41.884;12.534;2022-10-31T00:47:06;16.60;99.90
33414;DHT22;60055;41.884;12.534;2022-10-31T00:49:32;16.70;99.90
33414;DHT22;60055;41.884;12.534;2022-10-31T00:51:58;16.70;99.90
33414;DHT22;60055;41.884;12.534;2022-10-31T00:54:23;16.70;99.90
33414;DHT22;60055;41.884;12.534;2022-10-31T00:56:49;16.50;99.90
33414;DHT22;60055;41.884;12.534;2022-10-31T00:59:15;16.40;99.90
33414;DHT22;60055;41.884;12.534;2022-10-31T01:01:40;16.40;99.90
33414;DHT22;60055;41.884;12.534;2022-10-31T01:04:06;16.30;99.90
33414;DHT22;60055;41.884;12.534;2022-10-31T01:06:32;16.30;99.90
33414;DHT22;60055;41.884;12.534;2022-10-31T01:08:58;16.40;99.90
33414;DHT22;60055;41.884;12.534;2022-10-31T01:11:24;16.20;99.90
33414;DHT22;60055;41.884;12.534;2022-10-31T01:13:51;16.20;99.90
33414;DHT22;60055;41.884;12.534;2022-10-31T01:16:19;16.30;99.90
33414;DHT22;60055;41.884;12.534;2022-10-31T01:18:45;16.20;99.90
33414;DHT22;60055;41.884;12.534;2022-10-31T01:21:12;16.20;99.90
33414;DHT22;60055;41.884;12.534;2022-10-31T01:23:39;16.20;99.90
33414;DHT22;60055;41.884;12.534;2022-10-31T01:28:36;16.30;99.90
33414;DHT22;60055;41.884;12.534;2022-10-31T01:31:08;16.30;99.90
33414;DHT22;60055;41.884;12.534;2022-10-31T01:33:35;16.10;99.90
33414;DHT22;60055;41.884;12.534;2022-10-31T01:36:10;16.00;99.90
33414;DHT22;60055;41.884;12.534;2022-10-31T01:38:36;16.10;99.90
33414;DHT22;60055;41.884;12.534;2022-10-31T01:41:02;16.10;99.90
33414;DHT22;60055;41.884;12.534;2022-10-31T01:46:16;15.90;99.90
33414;DHT22;60055;41.884;12.534;2022-10-31T01:48:42;15.70;99.90
33414;DHT22;60055;41.884;12.534;2022-10-31T01:51:10;15.80;99.90
33414;DHT22;60055;41.884;12.534;2022-10-31T01:53:41;15.90;99.90
33414;DHT22;60055;41.884;12.534;2022-10-31T01:56:07;16.00;99.90
33414;DHT22;60055;41.884;12.534;2022-10-31T01:58:34;16.00;99.90
33414;DHT22;60055;41.884;12.534;2022-10-31T02:01:01;16.00;99.90
33414;DHT22;60055;41.884;12.534;2022-10-31T02:03:28;15.90;99.90
33414;DHT22;60055;41.884;12.534;2022-10-31T02:05:55;15.90;99.90
33414;DHT22;60055;41.884;12.534;2022-10-31T02:08:31;15.90;99.90
33414;DHT22;60055;41.884;12.534;2022-10-31T02:11:00;15.80;99.90
33414;DHT22;60055;41.884;12.534;2022-10-31T02:13:28;16.00;99.90
33414;DHT22;60055;41.884;12.534;2022-10-31T02:15:57;15.90;99.90
33414;DHT22;60055;41.884;12.534;2022-10-31T02:18:25;15.90;99.90
33414;DHT22;60055;41.884;12.534;2022-10-31T02:37:51;15.60;99.90
33414;DHT22;60055;41.884;12.534;2022-10-31T02:40:33;15.60;99.90
33414;DHT22;60055;41.884;12.534;2022-10-31T02:43:12;15.60;99.90
33414;DHT22;60055;41.884;12.534;2022-10-31T02:48:15;15.60;99.90
33414;DHT22;60055;41.884;12.534;2022-10-31T02:50:47;15.60;99.90
33414;DHT22;60055;41.884;12.534;2022-10-31T02:53:16;15.60;99.90
33414;DHT22;60055;41.884;12.534;2022-10-31T02:55:47;15.60;99.90
33414;DHT22;60055;41.884;12.534;2022-10-31T02:58:16;15.60;99.90
33414;DHT22;60055;41.884;12.534;2022-10-31T03:03:23;15.70;99.90
33414;DHT22;60055;41.884;12.534;2022-10-31T03:09:03;15.50;99.90
33414;DHT22;60055;41.884;12.534;2022-10-31T03:11:56;15.50;99.90
33414;DHT22;60055;41.884;12.534;2022-10-31T03:14:31;15.60;99.90
33414;DHT22;60055;41.884;12.534;2022-10-31T03:17:01;15.50;99.90
33414;DHT22;60055;41.884;12.534;2022-10-31T03:19:33;15.30;99.90
33414;DHT22;60055;41.884;12.534;2022-10-31T03:22:01;15.30;99.90
33414;DHT22;60055;41.884;12.534;2022-10-31T03:24:32;15.30;99.90
33414;DHT22;60055;41.884;12.534;2022-10-31T03:27:00;15.50;99.90
33414;DHT22;60055;41.884;12.534;2022-10-31T03:29:30;15.50;99.90
33414;DHT22;60055;41.884;12.534;2022-10-31T03:32:02;15.50;99.90
33414;DHT22;60055;41.884;12.534;2022-10-31T03:34:29;15.40;99.90
33414;DHT22;60055;41.884;12.534;2022-10-31T03:36:58;15.40;99.90
33414;DHT22;60055;41.884;12.534;2022-10-31T03:39:25;15.40;99.90
33414;DHT22;60055;41.884;12.534;2022-10-31T03:41:56;15.40;99.90
33414;DHT22;60055;41.884;12.534;2022-10-31T03:44:23;15.40;99.90
33414;DHT22;60055;41.884;12.534;2022-10-31T03:46:49;15.50;99.90
33414;DHT22;60055;41.884;12.534;2022-10-31T03:49:16;15.50;99.90
33414;DHT22;60055;41.884;12.534;2022-10-31T03:51:50;15.40;99.90
33414;DHT22;60055;41.884;12.534;2022-10-31T03:59:34;15.30;99.90
33414;DHT22;60055;41.884;12.534;2022-10-31T04:02:02;15.30;99.90
33414;DHT22;60055;41.884;12.534;2022-10-31T04:04:29;15.30;99.90
33414;DHT22;60055;41.884;12.534;2022-10-31T04:06:57;15.40;99.90
33414;DHT22;60055;41.884;12.534;2022-10-31T04:09:26;15.40;99.90
33414;DHT22;60055;41.884;12.534;2022-10-31T04:11:56;15.30;99.90
33414;DHT22;60055;41.884;12.534;2022-10-31T04:14:25;15.30;99.90
33414;DHT22;60055;41.884;12.534;2022-10-31T04:16:52;15.20;99.90
33414;DHT22;60055;41.884;12.534;2022-10-31T04:19:20;15.20;99.90
33414;DHT22;60055;41.884;12.534;2022-10-31T04:21:46;15.20;99.90
33414;DHT22;60055;41.884;12.534;2022-10-31T04:24:11;15.10;99.90
33414;DHT22;60055;41.884;12.534;2022-10-31T04:26:37;15.10;99.90
33414;DHT22;60055;41.884;12.534;2022-10-31T04:29:03;15.20;99.90
33414;DHT22;60055;41.884;12.534;2022-10-31T04:31:28;15.20;99.90
33414;DHT22;60055;41.884;12.534;2022-10-31T04:33:54;15.00;99.90
33414;DHT22;60055;41.884;12.534;2022-10-31T04:36:20;14.90;99.90
33414;DHT22;60055;41.884;12.534;2022-10-31T04:38:45;14.80;99.90
33414;DHT22;60055;41.884;12.534;2022-10-31T04:41:11;14.80;99.90
33414;DHT22;60055;41.884;12.534;2022-10-31T04:43:37;14.80;99.90
33414;DHT22;60055;41.884;12.534;2022-10-31T04:46:02;14.80;99.90
33414;DHT22;60055;41.884;12.534;2022-10-31T04:48:28;15.00;99.90
33414;DHT22;60055;41.884;12.534;2022-10-31T04:50:59;15.00;99.90
33414;DHT22;60055;41.884;12.534;2022-10-31T04:53:24;15.00;99.90
33414;DHT22;60055;41.884;12.534;2022-10-31T04:55:50;14.80;99.90
33414;DHT22;60055;41.884;12.534;2022-10-31T04:58:16;14.80;99.90
33414;DHT22;60055;41.884;12.534;2022-10-31T05:00:41;14.80;99.90
33414;DHT22;60055;41.884;12.534;2022-10-31T05:03:07;14.70;99.90
33414;DHT22;60055;41.884;12.534;2022-10-31T05:05:32;14.80;99.90
33414;DHT22;60055;41.884;12.534;2022-10-31T05:07:58;14.90;99.90
33414;DHT22;60055;41.884;12.534;2022-10-31T05:10:27;14.90;99.90
33414;DHT22;60055;41.884;12.534;2022-10-31T05:12:58;15.00;99.90
33414;DHT22;60055;41.884;12.534;2022-10-31T05:15:25;15.00;99.90
33414;DHT22;60055;41.884;12.534;2022-10-31T05:17:51;15.00;99.90
33414;DHT22;60055;41.884;12.534;2022-10-31T05:20:19;15.00;99.90
33414;DHT22;60055;41.884;12.534;2022-10-31T05:22:47;14.90;99.90
33414;DHT22;60055;41.884;12.534;2022-10-31T05:25:13;14.90;99.90
33414;DHT22;60055;41.884;12.534;2022-10-31T05:27:44;14.90;99.90
33414;DHT22;60055;41.884;12.534;2022-10-31T05:30:11;15.00;99.90
33414;DHT22;60055;41.884;12.534;2022-10-31T05:32:41;15.00;99.90
33414;DHT22;60055;41.884;12.534;2022-10-31T05:35:08;14.80;99.90
33414;DHT22;60055;41.884;12.534;2022-10-31T05:37:37;14.90;99.90
33414;DHT22;60055;41.884;12.534;2022-10-31T05:40:04;15.00;99.90
33414;DHT22;60055;41.884;12.534;2022-10-31T05:42:29;14.90;99.90
33414;DHT22;60055;41.884;12.534;2022-10-31T05:44:55;14.70;99.90
33414;DHT22;60055;41.884;12.534;2022-10-31T05:47:21;14.80;99.90
33414;DHT22;60055;41.884;12.534;2022-10-31T05:49:48;14.70;99.90
33414;DHT22;60055;41.884;12.534;2022-10-31T05:52:14;14.80;99.90
33414;DHT22;60055;41.884;12.534;2022-10-31T05:54:40;14.60;99.90
33414;DHT22;60055;41.884;12.534;2022-10-31T05:57:06;14.80;99.90
33414;DHT22;60055;41.884;12.534;2022-10-31T05:59:32;14.90;99.90
33414;DHT22;60055;41.884;12.534;2022-10-31T06:01:57;14.90;99.90
33414;DHT22;60055;41.884;12.534;2022-10-31T06:04:23;15.10;99.90
33414;DHT22;60055;41.884;12.534;2022-10-31T06:06:49;15.10;99.90
33414;DHT22;60055;41.884;12.534;2022-10-31T06:09:15;15.10;99.90
33414;DHT22;60055;41.884;12.534;2022-10-31T06:11:42;14.90;99.90
33414;DHT22;60055;41.884;12.534;2022-10-31T06:14:10;15.10;99.90
33414;DHT22;60055;41.884;12.534;2022-10-31T06:16:36;15.10;99.90
33414;DHT22;60055;41.884;12.534;2022-10-31T06:19:02;14.90;99.90
33414;DHT22;60055;41.884;12.534;2022-10-31T06:21:28;14.90;99.90
33414;DHT22;60055;41.884;12.534;2022-10-31T06:23:53;15.10;99.90
33414;DHT22;60055;41.884;12.534;2022-10-31T06:26:20;15.20;99.90
33414;DHT22;60055;41.884;12.534;2022-10-31T06:28:45;15.20;99.90
33414;DHT22;60055;41.884;12.534;2022-10-31T06:31:11;15.20;99.90
33414;DHT22;60055;41.884;12.534;2022-10-31T06:33:36;15.30;99.90
33414;DHT22;60055;41.884;12.534;2022-10-31T06:36:02;15.40;99.90
33414;DHT22;60055;41.884;12.534;2022-10-31T06:38:28;15.40;99.90
33414;DHT22;60055;41.884;12.534;2022-10-31T06:40:56;15.40;99.90
33414;DHT22;60055;41.884;12.534;2022-10-31T06:43:22;15.50;99.90
33414;DHT22;60055;41.884;12.534;2022-10-31T06:45:47;15.60;99.90
33414;DHT22;60055;41.884;12.534;2022-10-31T06:48:13;15.50;99.90
33414;DHT22;60055;41.884;12.534;2022-10-31T06:50:39;15.50;99.90
33414;DHT22;60055;41.884;12.534;2022-10-31T06:53:04;15.40;99.90
33414;DHT22;60055;41.884;12.534;2022-10-31T06:55:30;15.40;99.90
33414;DHT22;60055;41.884;12.534;2022-10-31T06:57:58;15.30;99.90
33414;DHT22;60055;41.884;12.534;2022-10-31T07:00:27;15.40;99.90
33414;DHT22;60055;41.884;12.534;2022-10-31T07:05:20;15.70;99.90
33414;DHT22;60055;41.884;12.534;2022-10-31T07:07:56;15.80;99.90
33414;DHT22;60055;41.884;12.534;2022-10-31T07:10:24;15.90;99.90
33414;DHT22;60055;41.884;12.534;2022-10-31T07:12:55;16.00;99.90
33414;DHT22;60055;41.884;12.534;2022-10-31T07:15:22;16.20;99.90
33414;DHT22;60055;41.884;12.534;2022-10-31T07:17:47;16.30;99.90
33414;DHT22;60055;41.884;12.534;2022-10-31T07:20:13;16.50;99.90
33414;DHT22;60055;41.884;12.534;2022-10-31T07:22:39;16.50;99.90
33414;DHT22;60055;41.884;12.534;2022-10-31T07:25:05;16.50;99.90
33414;DHT22;60055;41.884;12.534;2022-10-31T07:27:41;16.70;99.90
33414;DHT22;60055;41.884;12.534;2022-10-31T07:30:10;16.90;99.90
33414;DHT22;60055;41.884;12.534;2022-10-31T07:32:44;17.10;99.90
33414;DHT22;60055;41.884;12.534;2022-10-31T07:35:12;17.20;99.90
33414;DHT22;60055;41.884;12.534;2022-10-31T07:37:38;17.60;99.90
33414;DHT22;60055;41.884;12.534;2022-10-31T07:40:05;17.80;99.90
33414;DHT22;60055;41.884;12.534;2022-10-31T07:42:39;17.80;99.90
33414;DHT22;60055;41.884;12.534;2022-10-31T07:45:06;18.10;99.90
33414;DHT22;60055;41.884;12.534;2022-10-31T07:47:40;18.30;99.90
33414;DHT22;60055;41.884;12.534;2022-10-31T07:50:11;18.40;99.90
33414;DHT22;60055;41.884;12.534;2022-10-31T07:52:37;18.60;99.90
33414;DHT22;60055;41.884;12.534;2022-10-31T07:55:04;18.60;99.90
33414;DHT22;60055;41.884;12.534;2022-10-31T07:57:30;18.70;99.90
33414;DHT22;60055;41.884;12.534;2022-10-31T07:59:55;18.70;99.90
33414;DHT22;60055;41.884;12.534;2022-10-31T08:02:21;18.70;99.90
33414;DHT22;60055;41.884;12.534;2022-10-31T08:04:47;18.90;99.90
33414;DHT22;60055;41.884;12.534;2022-10-31T08:07:12;19.00;99.90
33414;DHT22;60055;41.884;12.534;2022-10-31T08:09:38;19.00;99.90
33414;DHT22;60055;41.884;12.534;2022-10-31T08:12:04;19.00;99.90
33414;DHT22;60055;41.884;12.534;2022-10-31T08:14:29;18.90;99.90
33414;DHT22;60055;41.884;12.534;2022-10-31T08:16:55;19.20;99.90
33414;DHT22;60055;41.884;12.534;2022-10-31T08:19:32;19.20;99.90
33414;DHT22;60055;41.884;12.534;2022-10-31T08:21:57;19.40;99.90
33414;DHT22;60055;41.884;12.534;2022-10-31T08:24:24;19.40;99.90
33414;DHT22;60055;41.884;12.534;2022-10-31T08:26:50;19.50;99.90
33414;DHT22;60055;41.884;12.534;2022-10-31T08:29:15;19.60;99.90
33414;DHT22;60055;41.884;12.534;2022-10-31T08:31:42;19.70;99.90
33414;DHT22;60055;41.884;12.534;2022-10-31T08:34:08;19.80;99.90
33414;DHT22;60055;41.884;12.534;2022-10-31T08:36:34;19.90;99.90
33414;DHT22;60055;41.884;12.534;2022-10-31T08:39:00;19.70;99.90
33414;DHT22;60055;41.884;12.534;2022-10-31T08:41:26;19.70;99.90
33414;DHT22;60055;41.884;12.534;2022-10-31T08:43:52;19.50;99.90
33414;DHT22;60055;41.884;12.534;2022-10-31T08:46:18;19.00;99.90
33414;DHT22;60055;41.884;12.534;2022-10-31T08:48:44;19.20;99.90
33414;DHT22;60055;41.884;12.534;2022-10-31T08:51:10;19.70;99.90
33414;DHT22;60055;41.884;12.534;2022-10-31T08:53:36;20.00;99.90
33414;DHT22;60055;41.884;12.534;2022-10-31T08:56:05;20.20;99.90
33414;DHT22;60055;41.884;12.534;2022-10-31T08:58:34;20.20;99.90
33414;DHT22;60055;41.884;12.534;2022-10-31T09:01:01;20.00;99.90
33414;DHT22;60055;41.884;12.534;2022-10-31T09:03:29;20.00;99.90
33414;DHT22;60055;41.884;12.534;2022-10-31T09:06:02;20.10;99.90
33414;DHT22;60055;41.884;12.534;2022-10-31T09:08:30;20.00;99.90
33414;DHT22;60055;41.884;12.534;2022-10-31T09:10:57;19.70;99.90
33414;DHT22;60055;41.884;12.534;2022-10-31T09:13:26;20.00;99.90
33414;DHT22;60055;41.884;12.534;2022-10-31T09:15:52;20.10;99.90
33414;DHT22;60055;41.884;12.534;2022-10-31T09:18:21;20.30;99.90
33414;DHT22;60055;41.884;12.534;2022-10-31T09:20:48;20.10;99.90
33414;DHT22;60055;41.884;12.534;2022-10-31T09:23:18;20.10;99.90
33414;DHT22;60055;41.884;12.534;2022-10-31T09:25:44;20.00;99.90
33414;DHT22;60055;41.884;12.534;2022-10-31T09:28:14;20.30;99.90
33414;DHT22;60055;41.884;12.534;2022-10-31T09:30:40;20.30;99.90
33414;DHT22;60055;41.884;12.534;2022-10-31T09:33:10;20.60;99.90
33414;DHT22;60055;41.884;12.534;2022-10-31T09:35:36;20.70;99.90
33414;DHT22;60055;41.884;12.534;2022-10-31T09:38:04;20.90;99.90
33414;DHT22;60055;41.884;12.534;2022-10-31T09:51:28;21.30;99.90
33414;DHT22;60055;41.884;12.534;2022-10-31T09:54:02;21.40;99.90
33414;DHT22;60055;41.884;12.534;2022-10-31T09:56:31;21.30;99.90
33414;DHT22;60055;41.884;12.534;2022-10-31T09:59:00;21.30;99.90
33414;DHT22;60055;41.884;12.534;2022-10-31T10:01:49;21.50;99.90
33414;DHT22;60055;41.884;12.534;2022-10-31T10:04:44;21.60;99.90
33414;DHT22;60055;41.884;12.534;2022-10-31T10:09:53;21.70;99.90
33414;DHT22;60055;41.884;12.534;2022-10-31T10:18:31;21.30;99.90
33414;DHT22;60055;41.884;12.534;2022-10-31T10:24:07;21.50;99.90
33414;DHT22;60055;41.884;12.534;2022-10-31T10:26:40;21.60;99.90
33414;DHT22;60055;41.884;12.534;2022-10-31T10:30:30;21.70;99.90
33414;DHT22;60055;41.884;12.534;2022-10-31T10:32:24;21.60;99.90
33414;DHT22;60055;41.884;12.534;2022-10-31T10:34:54;21.70;99.90
33414;DHT22;60055;41.884;12.534;2022-10-31T10:37:30;21.60;99.90
33414;DHT22;60055;41.884;12.534;2022-10-31T10:40:13;21.70;99.90
33414;DHT22;60055;41.884;12.534;2022-10-31T10:42:41;21.70;99.90
33414;DHT22;60055;41.884;12.534;2022-10-31T10:45:29;21.80;99.90
33414;DHT22;60055;41.884;12.534;2022-10-31T10:48:52;21.90;99.90
33414;DHT22;60055;41.884;12.534;2022-10-31T10:52:13;21.90;99.90
33414;DHT22;60055;41.884;12.534;2022-10-31T10:59:23;22.00;99.90
33414;DHT22;60055;41.884;12.534;2022-10-31T11:01:51;22.00;99.90
33414;DHT22;60055;41.884;12.534;2022-10-31T11:04:35;22.00;99.90
33414;DHT22;60055;41.884;12.534;2022-10-31T11:07:08;22.10;99.90
33414;DHT22;60055;41.884;12.534;2022-10-31T11:09:35;22.20;99.90
33414;DHT22;60055;41.884;12.534;2022-10-31T11:12:22;22.20;99.90
33414;DHT22;60055;41.884;12.534;2022-10-31T11:14:54;22.30;99.90
33414;DHT22;60055;41.884;12.534;2022-10-31T11:20:26;22.50;99.90
33414;DHT22;60055;41.884;12.534;2022-10-31T11:23:17;22.50;99.90
33414;DHT22;60055;41.884;12.534;2022-10-31T11:26:05;22.60;99.90
33414;DHT22;60055;41.884;12.534;2022-10-31T11:28:33;22.70;99.90
33414;DHT22;60055;41.884;12.534;2022-10-31T11:31:05;22.70;99.90
33414;DHT22;60055;41.884;12.534;2022-10-31T11:33:35;22.80;99.90
33414;DHT22;60055;41.884;12.534;2022-10-31T11:36:23;22.80;99.90
33414;DHT22;60055;41.884;12.534;2022-10-31T11:38:52;22.90;99.90
33414;DHT22;60055;41.884;12.534;2022-10-31T11:41:30;23.00;99.90
33414;DHT22;60055;41.884;12.534;2022-10-31T11:43:57;23.10;99.90
33414;DHT22;60055;41.884;12.534;2022-10-31T11:46:40;23.20;99.90
33414;DHT22;60055;41.884;12.534;2022-10-31T11:49:14;23.20;99.90
33414;DHT22;60055;41.884;12.534;2022-10-31T11:51:41;23.20;99.90
33414;DHT22;60055;41.884;12.534;2022-10-31T11:54:30;23.30;99.90
33414;DHT22;60055;41.884;12.534;2022-10-31T11:56:57;23.40;99.90
33414;DHT22;60055;41.884;12.534;2022-10-31T11:59:29;23.40;99.90
33414;DHT22;60055;41.884;12.534;2022-10-31T12:01:56;23.50;99.90
33414;DHT22;60055;41.884;12.534;2022-10-31T12:04:32;23.50;99.90
33414;DHT22;60055;41.884;12.534;2022-10-31T12:06:59;23.50;99.90
33414;DHT22;60055;41.884;12.534;2022-10-31T12:09:30;23.60;99.90
33414;DHT22;60055;41.884;12.534;2022-10-31T12:12:46;23.70;99.90
33414;DHT22;60055;41.884;12.534;2022-10-31T12:15:29;23.70;99.90
33414;DHT22;60055;41.884;12.534;2022-10-31T12:23:19;23.90;99.90
33414;DHT22;60055;41.884;12.534;2022-10-31T12:25:59;23.90;99.90
33414;DHT22;60055;41.884;12.534;2022-10-31T12:44:34;24.20;99.90
33414;DHT22;60055;41.884;12.534;2022-10-31T12:55:58;24.40;99.90
33414;DHT22;60055;41.884;12.534;2022-10-31T12:59:03;24.40;99.90
33414;DHT22;60055;41.884;12.534;2022-10-31T13:07:11;24.60;99.90
33414;DHT22;60055;41.884;12.534;2022-10-31T13:09:41;24.60;99.90
33414;DHT22;60055;41.884;12.534;2022-10-31T13:12:11;24.60;99.90
33414;DHT22;60055;41.884;12.534;2022-10-31T13:14:54;24.60;99.90
33414;DHT22;60055;41.884;12.534;2022-10-31T13:17:41;24.50;99.90
33414;DHT22;60055;41.884;12.534;2022-10-31T13:20:30;24.50;99.90
33414;DHT22;60055;41.884;12.534;2022-10-31T13:25:55;24.40;99.90
33414;DHT22;60055;41.884;12.534;2022-10-31T13:30:55;24.40;99.90
33414;DHT22;60055;41.884;12.534;2022-10-31T13:39:03;24.20;99.90
33414;DHT22;60055;41.884;12.534;2022-10-31T13:41:56;24.30;99.90
33414;DHT22;60055;41.884;12.534;2022-10-31T13:44:27;24.20;99.90
33414;DHT22;60055;41.884;12.534;2022-10-31T13:46:55;24.20;99.90
33414;DHT22;60055;41.884;12.534;2022-10-31T13:57:19;24.00;99.90
33414;DHT22;60055;41.884;12.534;2022-10-31T13:59:53;24.10;99.90
33414;DHT22;60055;41.884;12.534;2022-10-31T14:02:35;23.90;99.90
33414;DHT22;60055;41.884;12.534;2022-10-31T14:05:05;23.90;99.90
33414;DHT22;60055;41.884;12.534;2022-10-31T14:07:32;23.90;99.90
33414;DHT22;60055;41.884;12.534;2022-10-31T14:10:24;23.90;99.90
33414;DHT22;60055;41.884;12.534;2022-10-31T14:12:52;23.80;99.90
33414;DHT22;60055;41.884;12.534;2022-10-31T14:15:25;23.80;99.90
33414;DHT22;60055;41.884;12.534;2022-10-31T14:18:05;23.80;99.90
33414;DHT22;60055;41.884;12.534;2022-10-31T14:20:40;23.80;99.90
33414;DHT22;60055;41.884;12.534;2022-10-31T14:25:54;23.80;99.90
33414;DHT22;60055;41.884;12.534;2022-10-31T14:28:36;23.70;99.90
33414;DHT22;60055;41.884;12.534;2022-10-31T14:31:02;23.80;99.90
33414;DHT22;60055;41.884;12.534;2022-10-31T14:33:29;23.70;99.90
33414;DHT22;60055;41.884;12.534;2022-10-31T14:39:02;23.60;99.90
33414;DHT22;60055;41.884;12.534;2022-10-31T14:41:52;23.40;99.90
33414;DHT22;60055;41.884;12.534;2022-10-31T14:47:31;23.40;99.90
33414;DHT22;60055;41.884;12.534;2022-10-31T14:52:56;23.20;99.90
33414;DHT22;60055;41.884;12.534;2022-10-31T14:55:24;23.30;99.90
33414;DHT22;60055;41.884;12.534;2022-10-31T14:58:06;23.20;99.90
33414;DHT22;60055;41.884;12.534;2022-10-31T15:00:33;23.30;99.90
33414;DHT22;60055;41.884;12.534;2022-10-31T15:05:32;23.10;99.90
33414;DHT22;60055;41.884;12.534;2022-10-31T15:08:00;23.00;99.90
33414;DHT22;60055;41.884;12.534;2022-10-31T15:10:31;22.90;99.90
33414;DHT22;60055;41.884;12.534;2022-10-31T15:13:09;22.90;99.90
33414;DHT22;60055;41.884;12.534;2022-10-31T15:15:36;22.90;99.90
33414;DHT22;60055;41.884;12.534;2022-10-31T15:18:04;22.90;99.90
33414;DHT22;60055;41.884;12.534;2022-10-31T15:20:36;22.80;99.90
33414;DHT22;60055;41.884;12.534;2022-10-31T15:23:02;22.80;99.90
33414;DHT22;60055;41.884;12.534;2022-10-31T15:25:33;22.70;99.90
33414;DHT22;60055;41.884;12.534;2022-10-31T15:27:59;22.70;99.90
33414;DHT22;60055;41.884;12.534;2022-10-31T15:30:27;22.70;99.90
33414;DHT22;60055;41.884;12.534;2022-10-31T15:32:53;22.60;99.90
33414;DHT22;60055;41.884;12.534;2022-10-31T15:35:29;22.60;99.90
33414;DHT22;60055;41.884;12.534;2022-10-31T15:37:57;22.60;99.90
33414;DHT22;60055;41.884;12.534;2022-10-31T15:40:25;22.60;99.90
33414;DHT22;60055;41.884;12.534;2022-10-31T15:42:54;22.50;99.90
33414;DHT22;60055;41.884;12.534;2022-10-31T15:45:23;22.40;99.90
33414;DHT22;60055;41.884;12.534;2022-10-31T15:47:57;22.30;99.90
33414;DHT22;60055;41.884;12.534;2022-10-31T15:50:30;22.30;99.90
33414;DHT22;60055;41.884;12.534;2022-10-31T15:52:56;22.20;99.90
33414;DHT22;60055;41.884;12.534;2022-10-31T15:55:25;22.10;99.90
33414;DHT22;60055;41.884;12.534;2022-10-31T15:57:56;22.10;99.90
33414;DHT22;60055;41.884;12.534;2022-10-31T16:00:32;22.00;99.90
33414;DHT22;60055;41.884;12.534;2022-10-31T16:03:26;22.00;99.90
33414;DHT22;60055;41.884;12.534;2022-10-31T16:05:54;21.90;99.90
33414;DHT22;60055;41.884;12.534;2022-10-31T16:10:59;21.80;99.90
33414;DHT22;60055;41.884;12.534;2022-10-31T16:13:34;21.80;99.90
33414;DHT22;60055;41.884;12.534;2022-10-31T16:16:02;21.70;99.90
33414;DHT22;60055;41.884;12.534;2022-10-31T16:18:35;21.70;99.90
33414;DHT22;60055;41.884;12.534;2022-10-31T16:21:02;21.60;99.90
33414;DHT22;60055;41.884;12.534;2022-10-31T16:23:28;21.60;99.90
33414;DHT22;60055;41.884;12.534;2022-10-31T16:25:54;21.60;99.90
33414;DHT22;60055;41.884;12.534;2022-10-31T16:28:26;21.50;99.90
33414;DHT22;60055;41.884;12.534;2022-10-31T16:30:55;21.50;99.90
33414;DHT22;60055;41.884;12.534;2022-10-31T16:33:30;21.50;99.90
33414;DHT22;60055;41.884;12.534;2022-10-31T16:35:59;21.50;99.90
33414;DHT22;60055;41.884;12.534;2022-10-31T16:38:31;21.40;99.90
33414;DHT22;60055;41.884;12.534;2022-10-31T16:40:56;21.40;99.90
33414;DHT22;60055;41.884;12.534;2022-10-31T16:43:23;21.30;99.90
33414;DHT22;60055;41.884;12.534;2022-10-31T16:45:50;21.30;99.90
33414;DHT22;60055;41.884;12.534;2022-10-31T16:48:24;21.30;99.90
33414;DHT22;60055;41.884;12.534;2022-10-31T16:50:51;21.20;99.90
33414;DHT22;60055;41.884;12.534;2022-10-31T16:53:18;21.20;99.90
33414;DHT22;60055;41.884;12.534;2022-10-31T16:55:57;21.30;99.90
33414;DHT22;60055;41.884;12.534;2022-10-31T16:58:29;21.20;99.90
33414;DHT22;60055;41.884;12.534;2022-10-31T17:00:57;21.20;99.90
33414;DHT22;60055;41.884;12.534;2022-10-31T17:03:23;21.20;99.90
33414;DHT22;60055;41.884;12.534;2022-10-31T17:05:49;21.10;99.90
33414;DHT22;60055;41.884;12.534;2022-10-31T17:08:14;21.10;99.90
33414;DHT22;60055;41.884;12.534;2022-10-31T17:10:42;21.00;99.90
33414;DHT22;60055;41.884;12.534;2022-10-31T17:13:13;21.00;99.90
33414;DHT22;60055;41.884;12.534;2022-10-31T17:15:44;21.00;99.90
33414;DHT22;60055;41.884;12.534;2022-10-31T17:18:12;21.00;99.90
33414;DHT22;60055;41.884;12.534;2022-10-31T17:20:38;21.00;99.90
33414;DHT22;60055;41.884;12.534;2022-10-31T17:23:04;21.00;99.90
33414;DHT22;60055;41.884;12.534;2022-10-31T17:25:30;21.00;99.90
33414;DHT22;60055;41.884;12.534;2022-10-31T17:27:57;21.00;99.90
33414;DHT22;60055;41.884;12.534;2022-10-31T17:30:23;21.00;99.90
33414;DHT22;60055;41.884;12.534;2022-10-31T17:32:50;20.90;99.90
33414;DHT22;60055;41.884;12.534;2022-10-31T17:35:17;20.90;99.90
33414;DHT22;60055;41.884;12.534;2022-10-31T17:37:44;20.80;99.90
33414;DHT22;60055;41.884;12.534;2022-10-31T17:40:11;20.80;99.90
33414;DHT22;60055;41.884;12.534;2022-10-31T17:42:37;20.90;99.90
33414;DHT22;60055;41.884;12.534;2022-10-31T17:45:04;20.90;99.90
33414;DHT22;60055;41.884;12.534;2022-10-31T17:47:30;20.90;99.90
33414;DHT22;60055;41.884;12.534;2022-10-31T17:49:56;20.90;99.90
33414;DHT22;60055;41.884;12.534;2022-10-31T17:52:22;21.00;99.90